sensor_id;sensor_type;location;lat;lon;timestamp;P1;durP1;ratioP1;P2;durP2;ratioP2
45488;SDS011;31236;55.026;61.042;2022-07-30T00:01:03;8.53;;;3.80;;
45488;SDS011;31236;55.026;61.042;2022-07-30T00:03:35;8.28;;;3.72;;
45488;SDS011;31236;55.026;61.042;2022-07-30T00:06:09;9.00;;;3.92;;
45488;SDS011;31236;55.026;61.042;2022-07-30T00:08:43;7.85;;;3.98;;
45488;SDS011;31236;55.026;61.042;2022-07-30T00:11:15;7.95;;;3.52;;
45488;SDS011;31236;55.026;61.042;2022-07-30T00:13:48;8.15;;;4.10;;
45488;SDS011;31236;55.026;61.042;2022-07-30T00:16:21;10.95;;;4.00;;
45488;SDS011;31236;55.026;61.042;2022-07-30T00:18:54;7.28;;;3.40;;
45488;SDS011;31236;55.026;61.042;2022-07-30T00:21:27;10.93;;;3.87;;
45488;SDS011;31236;55.026;61.042;2022-07-30T00:24:01;8.98;;;3.87;;
45488;SDS011;31236;55.026;61.042;2022-07-30T00:26:36;9.30;;;3.62;;
45488;SDS011;31236;55.026;61.042;2022-07-30T00:29:10;9.68;;;4.10;;
45488;SDS011;31236;55.026;61.042;2022-07-30T00:31:42;8.10;;;3.50;;
45488;SDS011;31236;55.026;61.042;2022-07-30T00:34:14;8.20;;;4.08;;
45488;SDS011;31236;55.026;61.042;2022-07-30T00:36:49;9.65;;;4.10;;
45488;SDS011;31236;55.026;61.042;2022-07-30T00:39:19;11.40;;;4.53;;
45488;SDS011;31236;55.026;61.042;2022-07-30T00:44:44;12.18;;;4.35;;
45488;SDS011;31236;55.026;61.042;2022-07-30T00:47:18;9.18;;;3.92;;
45488;SDS011;31236;55.026;61.042;2022-07-30T00:49:52;8.25;;;3.75;;
45488;SDS011;31236;55.026;61.042;2022-07-30T00:52:24;9.93;;;3.92;;
45488;SDS011;31236;55.026;61.042;2022-07-30T00:54:55;12.63;;;3.90;;
45488;SDS011;31236;55.026;61.042;2022-07-30T00:57:27;6.83;;;3.80;;
45488;SDS011;31236;55.026;61.042;2022-07-30T00:59:59;11.40;;;3.92;;
45488;SDS011;31236;55.026;61.042;2022-07-30T01:02:32;9.58;;;4.42;;
45488;SDS011;31236;55.026;61.042;2022-07-30T01:05:07;9.03;;;4.00;;
45488;SDS011;31236;55.026;61.042;2022-07-30T01:07:39;12.93;;;4.00;;
45488;SDS011;31236;55.026;61.042;2022-07-30T01:10:14;10.95;;;4.35;;
45488;SDS011;31236;55.026;61.042;2022-07-30T01:12:48;9.60;;;4.03;;
45488;SDS011;31236;55.026;61.042;2022-07-30T01:15:22;11.20;;;4.15;;
45488;SDS011;31236;55.026;61.042;2022-07-30T01:17:55;11.90;;;4.40;;
45488;SDS011;31236;55.026;61.042;2022-07-30T01:23:40;11.25;;;4.50;;
45488;SDS011;31236;55.026;61.042;2022-07-30T01:29:05;10.30;;;3.72;;
45488;SDS011;31236;55.026;61.042;2022-07-30T01:31:41;13.08;;;3.90;;
45488;SDS011;31236;55.026;61.042;2022-07-30T01:34:14;10.32;;;3.70;;
45488;SDS011;31236;55.026;61.042;2022-07-30T01:36:48;11.53;;;3.92;;
45488;SDS011;31236;55.026;61.042;2022-07-30T01:39:20;11.20;;;4.10;;
45488;SDS011;31236;55.026;61.042;2022-07-30T01:41:55;13.95;;;4.40;;
45488;SDS011;31236;55.026;61.042;2022-07-30T01:44:27;8.60;;;3.67;;
45488;SDS011;31236;55.026;61.042;2022-07-30T01:46:57;8.95;;;3.95;;
45488;SDS011;31236;55.026;61.042;2022-07-30T01:49:31;10.72;;;4.37;;
45488;SDS011;31236;55.026;61.042;2022-07-30T01:52:06;10.63;;;4.35;;
45488;SDS011;31236;55.026;61.042;2022-07-30T01:54:41;11.05;;;4.20;;
45488;SDS011;31236;55.026;61.042;2022-07-30T01:57:13;10.25;;;3.98;;
45488;SDS011;31236;55.026;61.042;2022-07-30T01:59:50;12.15;;;4.33;;
45488;SDS011;31236;55.026;61.042;2022-07-30T02:02:24;9.98;;;4.15;;
45488;SDS011;31236;55.026;61.042;2022-07-30T02:04:57;11.78;;;4.60;;
45488;SDS011;31236;55.026;61.042;2022-07-30T02:08:04;8.80;;;3.75;;
45488;SDS011;31236;55.026;61.042;2022-07-30T02:13:01;10.05;;;4.45;;
45488;SDS011;31236;55.026;61.042;2022-07-30T02:15:34;9.00;;;4.55;;
45488;SDS011;31236;55.026;61.042;2022-07-30T02:21:38;8.85;;;4.40;;
45488;SDS011;31236;55.026;61.042;2022-07-30T02:24:15;9.88;;;4.75;;
45488;SDS011;31236;55.026;61.042;2022-07-30T02:26:48;11.55;;;4.25;;
45488;SDS011;31236;55.026;61.042;2022-07-30T02:29:20;8.20;;;4.47;;
45488;SDS011;31236;55.026;61.042;2022-07-30T02:31:52;8.20;;;3.92;;
45488;SDS011;31236;55.026;61.042;2022-07-30T02:34:24;10.03;;;4.50;;
45488;SDS011;31236;55.026;61.042;2022-07-30T02:36:56;12.65;;;4.30;;
45488;SDS011;31236;55.026;61.042;2022-07-30T02:39:32;10.48;;;4.95;;
45488;SDS011;31236;55.026;61.042;2022-07-30T02:42:05;11.78;;;4.20;;
45488;SDS011;31236;55.026;61.042;2022-07-30T02:44:36;9.43;;;4.37;;
45488;SDS011;31236;55.026;61.042;2022-07-30T02:47:12;11.63;;;4.80;;
45488;SDS011;31236;55.026;61.042;2022-07-30T02:49:43;11.05;;;4.60;;
45488;SDS011;31236;55.026;61.042;2022-07-30T02:52:14;9.93;;;4.90;;
45488;SDS011;31236;55.026;61.042;2022-07-30T02:54:46;14.28;;;5.33;;
45488;SDS011;31236;55.026;61.042;2022-07-30T02:57:18;11.05;;;4.75;;
45488;SDS011;31236;55.026;61.042;2022-07-30T02:59:50;8.30;;;4.22;;
45488;SDS011;31236;55.026;61.042;2022-07-30T03:02:22;12.65;;;4.75;;
45488;SDS011;31236;55.026;61.042;2022-07-30T03:04:53;10.18;;;4.65;;
45488;SDS011;31236;55.026;61.042;2022-07-30T03:07:25;12.73;;;4.97;;
45488;SDS011;31236;55.026;61.042;2022-07-30T03:09:57;11.10;;;4.40;;
45488;SDS011;31236;55.026;61.042;2022-07-30T03:12:30;10.80;;;4.78;;
45488;SDS011;31236;55.026;61.042;2022-07-30T03:15:04;8.60;;;4.10;;
45488;SDS011;31236;55.026;61.042;2022-07-30T03:20:27;11.33;;;4.92;;
45488;SDS011;31236;55.026;61.042;2022-07-30T03:23:01;12.05;;;4.25;;
45488;SDS011;31236;55.026;61.042;2022-07-30T03:25:32;13.70;;;4.87;;
45488;SDS011;31236;55.026;61.042;2022-07-30T03:28:03;8.73;;;4.17;;
45488;SDS011;31236;55.026;61.042;2022-07-30T03:30:35;9.50;;;4.40;;
45488;SDS011;31236;55.026;61.042;2022-07-30T03:33:06;11.65;;;4.62;;
45488;SDS011;31236;55.026;61.042;2022-07-30T03:35:37;8.90;;;4.60;;
45488;SDS011;31236;55.026;61.042;2022-07-30T03:40:59;8.75;;;4.17;;
45488;SDS011;31236;55.026;61.042;2022-07-30T03:43:30;11.68;;;4.87;;
45488;SDS011;31236;55.026;61.042;2022-07-30T03:48:33;9.85;;;5.20;;
45488;SDS011;31236;55.026;61.042;2022-07-30T03:51:05;11.13;;;4.87;;
45488;SDS011;31236;55.026;61.042;2022-07-30T03:53:36;11.12;;;4.83;;
45488;SDS011;31236;55.026;61.042;2022-07-30T03:56:08;10.35;;;4.90;;
45488;SDS011;31236;55.026;61.042;2022-07-30T03:58:38;9.85;;;4.65;;
45488;SDS011;31236;55.026;61.042;2022-07-30T04:01:09;9.60;;;4.92;;
45488;SDS011;31236;55.026;61.042;2022-07-30T04:03:39;8.08;;;4.62;;
45488;SDS011;31236;55.026;61.042;2022-07-30T04:06:09;11.95;;;4.42;;
45488;SDS011;31236;55.026;61.042;2022-07-30T04:08:40;12.70;;;4.53;;
45488;SDS011;31236;55.026;61.042;2022-07-30T04:11:10;12.13;;;4.47;;
45488;SDS011;31236;55.026;61.042;2022-07-30T04:13:40;12.58;;;4.72;;
45488;SDS011;31236;55.026;61.042;2022-07-30T04:16:13;11.78;;;5.03;;
45488;SDS011;31236;55.026;61.042;2022-07-30T04:18:46;8.33;;;4.70;;
45488;SDS011;31236;55.026;61.042;2022-07-30T04:21:35;12.73;;;5.22;;
45488;SDS011;31236;55.026;61.042;2022-07-30T04:24:08;8.93;;;4.60;;
45488;SDS011;31236;55.026;61.042;2022-07-30T04:26:39;10.13;;;4.62;;
45488;SDS011;31236;55.026;61.042;2022-07-30T04:29:10;9.93;;;4.25;;
45488;SDS011;31236;55.026;61.042;2022-07-30T04:31:40;10.82;;;4.70;;
45488;SDS011;31236;55.026;61.042;2022-07-30T04:37:01;11.25;;;4.72;;
45488;SDS011;31236;55.026;61.042;2022-07-30T04:39:31;10.05;;;4.62;;
45488;SDS011;31236;55.026;61.042;2022-07-30T04:42:02;11.18;;;5.05;;
45488;SDS011;31236;55.026;61.042;2022-07-30T04:44:32;12.73;;;4.90;;
45488;SDS011;31236;55.026;61.042;2022-07-30T04:47:02;11.35;;;4.15;;
45488;SDS011;31236;55.026;61.042;2022-07-30T04:49:32;13.08;;;4.60;;
45488;SDS011;31236;55.026;61.042;2022-07-30T04:52:03;10.65;;;4.55;;
45488;SDS011;31236;55.026;61.042;2022-07-30T04:57:26;13.22;;;4.47;;
45488;SDS011;31236;55.026;61.042;2022-07-30T04:59:59;13.38;;;4.75;;
45488;SDS011;31236;55.026;61.042;2022-07-30T05:05:01;12.28;;;5.35;;
45488;SDS011;31236;55.026;61.042;2022-07-30T05:07:32;9.60;;;4.73;;
45488;SDS011;31236;55.026;61.042;2022-07-30T05:10:05;13.00;;;4.60;;
45488;SDS011;31236;55.026;61.042;2022-07-30T05:12:37;6.83;;;3.77;;
45488;SDS011;31236;55.026;61.042;2022-07-30T05:15:08;11.28;;;4.55;;
45488;SDS011;31236;55.026;61.042;2022-07-30T05:17:41;11.20;;;4.67;;
45488;SDS011;31236;55.026;61.042;2022-07-30T05:20:11;9.70;;;4.60;;
45488;SDS011;31236;55.026;61.042;2022-07-30T05:22:43;13.95;;;4.83;;
45488;SDS011;31236;55.026;61.042;2022-07-30T05:25:14;9.60;;;4.42;;
45488;SDS011;31236;55.026;61.042;2022-07-30T05:27:44;8.60;;;4.55;;
45488;SDS011;31236;55.026;61.042;2022-07-30T05:30:14;9.55;;;4.28;;
45488;SDS011;31236;55.026;61.042;2022-07-30T05:32:44;8.90;;;4.45;;
45488;SDS011;31236;55.026;61.042;2022-07-30T05:35:14;8.48;;;4.17;;
45488;SDS011;31236;55.026;61.042;2022-07-30T05:37:46;10.63;;;4.35;;
45488;SDS011;31236;55.026;61.042;2022-07-30T05:40:21;11.50;;;4.25;;
45488;SDS011;31236;55.026;61.042;2022-07-30T05:42:51;9.30;;;4.03;;
45488;SDS011;31236;55.026;61.042;2022-07-30T05:45:21;10.85;;;4.28;;
45488;SDS011;31236;55.026;61.042;2022-07-30T05:47:53;9.83;;;4.25;;
45488;SDS011;31236;55.026;61.042;2022-07-30T05:50:23;11.38;;;4.22;;
45488;SDS011;31236;55.026;61.042;2022-07-30T05:52:53;9.13;;;4.55;;
45488;SDS011;31236;55.026;61.042;2022-07-30T05:55:23;9.93;;;4.15;;
45488;SDS011;31236;55.026;61.042;2022-07-30T05:57:55;9.45;;;4.60;;
45488;SDS011;31236;55.026;61.042;2022-07-30T06:00:27;13.13;;;4.30;;
45488;SDS011;31236;55.026;61.042;2022-07-30T06:02:57;9.80;;;4.22;;
45488;SDS011;31236;55.026;61.042;2022-07-30T06:05:27;7.50;;;3.98;;
45488;SDS011;31236;55.026;61.042;2022-07-30T06:07:59;14.07;;;4.87;;
45488;SDS011;31236;55.026;61.042;2022-07-30T06:10:30;9.40;;;4.50;;
45488;SDS011;31236;55.026;61.042;2022-07-30T06:13:00;12.95;;;4.50;;
45488;SDS011;31236;55.026;61.042;2022-07-30T06:15:32;10.63;;;3.95;;
45488;SDS011;31236;55.026;61.042;2022-07-30T06:18:04;8.20;;;4.50;;
45488;SDS011;31236;55.026;61.042;2022-07-30T06:20:34;10.05;;;4.42;;
45488;SDS011;31236;55.026;61.042;2022-07-30T06:23:04;11.03;;;4.22;;
45488;SDS011;31236;55.026;61.042;2022-07-30T06:25:34;11.78;;;4.40;;
45488;SDS011;31236;55.026;61.042;2022-07-30T06:28:07;12.15;;;4.85;;
45488;SDS011;31236;55.026;61.042;2022-07-30T06:30:57;10.80;;;4.15;;
45488;SDS011;31236;55.026;61.042;2022-07-30T06:33:27;11.15;;;4.15;;
45488;SDS011;31236;55.026;61.042;2022-07-30T06:35:57;6.62;;;4.03;;
45488;SDS011;31236;55.026;61.042;2022-07-30T06:38:27;9.18;;;4.33;;
45488;SDS011;31236;55.026;61.042;2022-07-30T06:40:57;8.25;;;4.45;;
45488;SDS011;31236;55.026;61.042;2022-07-30T06:43:29;8.38;;;4.53;;
45488;SDS011;31236;55.026;61.042;2022-07-30T06:45:59;10.95;;;4.62;;
45488;SDS011;31236;55.026;61.042;2022-07-30T06:48:30;9.53;;;4.53;;
45488;SDS011;31236;55.026;61.042;2022-07-30T06:51:02;9.98;;;4.72;;
45488;SDS011;31236;55.026;61.042;2022-07-30T06:53:32;8.05;;;4.50;;
45488;SDS011;31236;55.026;61.042;2022-07-30T06:56:06;10.40;;;4.25;;
45488;SDS011;31236;55.026;61.042;2022-07-30T06:58:36;8.75;;;4.60;;
45488;SDS011;31236;55.026;61.042;2022-07-30T07:01:06;9.98;;;4.45;;
45488;SDS011;31236;55.026;61.042;2022-07-30T07:03:36;6.97;;;4.40;;
45488;SDS011;31236;55.026;61.042;2022-07-30T07:06:07;8.33;;;4.50;;
45488;SDS011;31236;55.026;61.042;2022-07-30T07:08:39;7.15;;;4.55;;
45488;SDS011;31236;55.026;61.042;2022-07-30T07:11:09;9.50;;;4.00;;
45488;SDS011;31236;55.026;61.042;2022-07-30T07:13:39;8.55;;;4.53;;
45488;SDS011;31236;55.026;61.042;2022-07-30T07:16:09;8.40;;;4.47;;
45488;SDS011;31236;55.026;61.042;2022-07-30T07:18:42;10.15;;;4.70;;
45488;SDS011;31236;55.026;61.042;2022-07-30T07:21:13;10.63;;;4.30;;
45488;SDS011;31236;55.026;61.042;2022-07-30T07:23:43;7.95;;;4.40;;
45488;SDS011;31236;55.026;61.042;2022-07-30T07:26:33;8.23;;;4.87;;
45488;SDS011;31236;55.026;61.042;2022-07-30T07:29:03;10.38;;;5.25;;
45488;SDS011;31236;55.026;61.042;2022-07-30T07:31:33;11.25;;;5.00;;
45488;SDS011;31236;55.026;61.042;2022-07-30T07:34:06;11.83;;;4.78;;
45488;SDS011;31236;55.026;61.042;2022-07-30T07:36:36;11.78;;;4.50;;
45488;SDS011;31236;55.026;61.042;2022-07-30T07:39:06;12.37;;;5.08;;
45488;SDS011;31236;55.026;61.042;2022-07-30T07:41:36;10.30;;;4.78;;
45488;SDS011;31236;55.026;61.042;2022-07-30T07:44:06;8.50;;;4.87;;
45488;SDS011;31236;55.026;61.042;2022-07-30T07:46:36;9.05;;;4.50;;
45488;SDS011;31236;55.026;61.042;2022-07-30T07:51:38;13.60;;;4.55;;
45488;SDS011;31236;55.026;61.042;2022-07-30T07:54:08;15.05;;;4.40;;
45488;SDS011;31236;55.026;61.042;2022-07-30T07:56:40;17.15;;;5.30;;
45488;SDS011;31236;55.026;61.042;2022-07-30T07:59:11;9.48;;;4.65;;
45488;SDS011;31236;55.026;61.042;2022-07-30T08:01:43;11.38;;;4.75;;
45488;SDS011;31236;55.026;61.042;2022-07-30T08:04:13;11.10;;;4.97;;
45488;SDS011;31236;55.026;61.042;2022-07-30T08:06:45;11.50;;;6.12;;
45488;SDS011;31236;55.026;61.042;2022-07-30T08:09:15;12.68;;;6.22;;
45488;SDS011;31236;55.026;61.042;2022-07-30T08:11:45;11.90;;;5.50;;
45488;SDS011;31236;55.026;61.042;2022-07-30T08:14:17;13.65;;;5.97;;
45488;SDS011;31236;55.026;61.042;2022-07-30T08:16:47;15.30;;;5.67;;
45488;SDS011;31236;55.026;61.042;2022-07-30T08:19:17;13.25;;;6.40;;
45488;SDS011;31236;55.026;61.042;2022-07-30T08:21:47;12.80;;;6.22;;
45488;SDS011;31236;55.026;61.042;2022-07-30T08:24:16;15.38;;;6.08;;
45488;SDS011;31236;55.026;61.042;2022-07-30T08:26:47;11.35;;;5.20;;
45488;SDS011;31236;55.026;61.042;2022-07-30T08:29:17;10.25;;;5.78;;
45488;SDS011;31236;55.026;61.042;2022-07-30T08:31:47;9.48;;;5.25;;
45488;SDS011;31236;55.026;61.042;2022-07-30T08:34:17;12.88;;;5.87;;
45488;SDS011;31236;55.026;61.042;2022-07-30T08:36:47;11.20;;;4.92;;
45488;SDS011;31236;55.026;61.042;2022-07-30T08:39:17;10.78;;;4.85;;
45488;SDS011;31236;55.026;61.042;2022-07-30T08:41:46;9.48;;;4.67;;
45488;SDS011;31236;55.026;61.042;2022-07-30T08:44:17;8.53;;;4.75;;
45488;SDS011;31236;55.026;61.042;2022-07-30T08:46:47;10.60;;;4.95;;
45488;SDS011;31236;55.026;61.042;2022-07-30T08:49:21;13.20;;;4.85;;
45488;SDS011;31236;55.026;61.042;2022-07-30T08:51:52;11.27;;;5.53;;
45488;SDS011;31236;55.026;61.042;2022-07-30T08:54:23;9.95;;;4.80;;
45488;SDS011;31236;55.026;61.042;2022-07-30T08:56:53;7.72;;;5.03;;
45488;SDS011;31236;55.026;61.042;2022-07-30T08:59:23;13.05;;;5.30;;
45488;SDS011;31236;55.026;61.042;2022-07-30T09:01:54;10.63;;;4.53;;
45488;SDS011;31236;55.026;61.042;2022-07-30T09:04:24;15.20;;;6.03;;
45488;SDS011;31236;55.026;61.042;2022-07-30T09:06:54;17.00;;;6.20;;
45488;SDS011;31236;55.026;61.042;2022-07-30T09:09:24;10.70;;;5.20;;
45488;SDS011;31236;55.026;61.042;2022-07-30T09:11:54;11.60;;;6.40;;
45488;SDS011;31236;55.026;61.042;2022-07-30T09:14:24;16.48;;;9.88;;
45488;SDS011;31236;55.026;61.042;2022-07-30T09:16:55;14.00;;;7.65;;
45488;SDS011;31236;55.026;61.042;2022-07-30T09:19:25;17.53;;;10.73;;
45488;SDS011;31236;55.026;61.042;2022-07-30T09:21:56;8.30;;;4.60;;
45488;SDS011;31236;55.026;61.042;2022-07-30T09:24:27;18.92;;;9.20;;
45488;SDS011;31236;55.026;61.042;2022-07-30T09:26:59;10.08;;;4.03;;
45488;SDS011;31236;55.026;61.042;2022-07-30T09:29:31;14.90;;;8.63;;
45488;SDS011;31236;55.026;61.042;2022-07-30T09:37:26;9.13;;;4.85;;
45488;SDS011;31236;55.026;61.042;2022-07-30T09:39:56;15.30;;;8.65;;
45488;SDS011;31236;55.026;61.042;2022-07-30T09:42:27;12.15;;;4.60;;
45488;SDS011;31236;55.026;61.042;2022-07-30T09:47:47;8.10;;;3.72;;
45488;SDS011;31236;55.026;61.042;2022-07-30T09:50:17;12.00;;;3.33;;
45488;SDS011;31236;55.026;61.042;2022-07-30T09:52:49;9.40;;;4.33;;
45488;SDS011;31236;55.026;61.042;2022-07-30T09:58:11;6.47;;;3.50;;
45488;SDS011;31236;55.026;61.042;2022-07-30T10:00:41;6.83;;;3.58;;
45488;SDS011;31236;55.026;61.042;2022-07-30T10:06:02;10.85;;;3.05;;
45488;SDS011;31236;55.026;61.042;2022-07-30T10:11:21;7.03;;;3.58;;
45488;SDS011;31236;55.026;61.042;2022-07-30T10:13:54;7.05;;;3.33;;
45488;SDS011;31236;55.026;61.042;2022-07-30T10:16:26;13.90;;;7.37;;
45488;SDS011;31236;55.026;61.042;2022-07-30T10:18:56;8.65;;;3.42;;
45488;SDS011;31236;55.026;61.042;2022-07-30T10:21:27;10.30;;;6.12;;
45488;SDS011;31236;55.026;61.042;2022-07-30T10:23:58;9.78;;;3.50;;
45488;SDS011;31236;55.026;61.042;2022-07-30T10:26:30;11.85;;;3.75;;
45488;SDS011;31236;55.026;61.042;2022-07-30T10:29:01;8.20;;;3.50;;
45488;SDS011;31236;55.026;61.042;2022-07-30T10:31:31;7.85;;;3.50;;
45488;SDS011;31236;55.026;61.042;2022-07-30T10:34:01;8.18;;;3.72;;
45488;SDS011;31236;55.026;61.042;2022-07-30T10:36:32;7.33;;;3.40;;
45488;SDS011;31236;55.026;61.042;2022-07-30T10:39:03;5.78;;;3.25;;
45488;SDS011;31236;55.026;61.042;2022-07-30T10:47:36;13.00;;;10.65;;
45488;SDS011;31236;55.026;61.042;2022-07-30T10:55:30;8.48;;;5.12;;
45488;SDS011;31236;55.026;61.042;2022-07-30T11:03:26;8.45;;;4.87;;
45488;SDS011;31236;55.026;61.042;2022-07-30T11:08:48;6.90;;;3.33;;
45488;SDS011;31236;55.026;61.042;2022-07-30T11:19:19;9.13;;;3.67;;
45488;SDS011;31236;55.026;61.042;2022-07-30T11:25:00;6.42;;;3.40;;
45488;SDS011;31236;55.026;61.042;2022-07-30T11:41:27;10.43;;;4.22;;
45488;SDS011;31236;55.026;61.042;2022-07-30T11:47:10;8.35;;;3.60;;
45488;SDS011;31236;55.026;61.042;2022-07-30T11:49:42;8.63;;;3.55;;
45488;SDS011;31236;55.026;61.042;2022-07-30T11:52:21;7.33;;;4.05;;
45488;SDS011;31236;55.026;61.042;2022-07-30T12:03:18;7.95;;;3.60;;
45488;SDS011;31236;55.026;61.042;2022-07-30T12:05:53;10.10;;;3.70;;
45488;SDS011;31236;55.026;61.042;2022-07-30T12:08:25;9.73;;;3.77;;
45488;SDS011;31236;55.026;61.042;2022-07-30T12:10:58;5.22;;;3.45;;
45488;SDS011;31236;55.026;61.042;2022-07-30T12:13:29;7.67;;;3.92;;
45488;SDS011;31236;55.026;61.042;2022-07-30T12:18:52;7.03;;;3.65;;
45488;SDS011;31236;55.026;61.042;2022-07-30T12:21:23;13.35;;;6.45;;
45488;SDS011;31236;55.026;61.042;2022-07-30T12:23:55;11.18;;;7.35;;
45488;SDS011;31236;55.026;61.042;2022-07-30T12:26:29;25.77;;;13.65;;
45488;SDS011;31236;55.026;61.042;2022-07-30T12:29:00;28.25;;;20.82;;
45488;SDS011;31236;55.026;61.042;2022-07-30T12:31:34;26.20;;;14.38;;
45488;SDS011;31236;55.026;61.042;2022-07-30T12:34:39;11.55;;;6.85;;
45488;SDS011;31236;55.026;61.042;2022-07-30T12:37:05;8.35;;;4.50;;
45488;SDS011;31236;55.026;61.042;2022-07-30T12:39:47;8.83;;;4.08;;
45488;SDS011;31236;55.026;61.042;2022-07-30T12:42:21;7.42;;;4.42;;
45488;SDS011;31236;55.026;61.042;2022-07-30T12:44:52;24.35;;;15.72;;
45488;SDS011;31236;55.026;61.042;2022-07-30T12:50:16;45.40;;;25.48;;
45488;SDS011;31236;55.026;61.042;2022-07-30T12:52:50;17.25;;;6.95;;
45488;SDS011;31236;55.026;61.042;2022-07-30T12:58:13;12.55;;;5.80;;
45488;SDS011;31236;55.026;61.042;2022-07-30T13:03:36;11.40;;;4.58;;
45488;SDS011;31236;55.026;61.042;2022-07-30T13:08:59;13.28;;;4.78;;
45488;SDS011;31236;55.026;61.042;2022-07-30T13:14:22;15.85;;;4.92;;
45488;SDS011;31236;55.026;61.042;2022-07-30T13:16:55;10.98;;;5.20;;
45488;SDS011;31236;55.026;61.042;2022-07-30T13:19:27;11.38;;;4.92;;
45488;SDS011;31236;55.026;61.042;2022-07-30T13:21:57;14.13;;;7.15;;
45488;SDS011;31236;55.026;61.042;2022-07-30T13:24:31;11.50;;;7.30;;
45488;SDS011;31236;55.026;61.042;2022-07-30T13:27:04;16.23;;;8.78;;
45488;SDS011;31236;55.026;61.042;2022-07-30T13:29:38;15.30;;;9.70;;
45488;SDS011;31236;55.026;61.042;2022-07-30T13:32:09;16.48;;;7.60;;
45488;SDS011;31236;55.026;61.042;2022-07-30T13:34:43;19.42;;;8.50;;
45488;SDS011;31236;55.026;61.042;2022-07-30T13:37:15;19.95;;;8.98;;
45488;SDS011;31236;55.026;61.042;2022-07-30T13:39:45;20.02;;;10.55;;
45488;SDS011;31236;55.026;61.042;2022-07-30T13:42:18;14.98;;;9.63;;
45488;SDS011;31236;55.026;61.042;2022-07-30T13:44:52;16.60;;;9.20;;
45488;SDS011;31236;55.026;61.042;2022-07-30T13:47:22;15.65;;;9.08;;
45488;SDS011;31236;55.026;61.042;2022-07-30T13:49:55;13.95;;;8.55;;
45488;SDS011;31236;55.026;61.042;2022-07-30T13:52:25;17.10;;;9.30;;
45488;SDS011;31236;55.026;61.042;2022-07-30T13:54:59;24.60;;;10.68;;
45488;SDS011;31236;55.026;61.042;2022-07-30T13:57:32;17.65;;;10.18;;
45488;SDS011;31236;55.026;61.042;2022-07-30T14:00:05;20.88;;;12.43;;
45488;SDS011;31236;55.026;61.042;2022-07-30T14:02:39;21.23;;;12.70;;
45488;SDS011;31236;55.026;61.042;2022-07-30T14:05:12;20.17;;;14.13;;
45488;SDS011;31236;55.026;61.042;2022-07-30T14:07:45;15.68;;;11.12;;
45488;SDS011;31236;55.026;61.042;2022-07-30T14:10:15;18.82;;;10.32;;
45488;SDS011;31236;55.026;61.042;2022-07-30T14:12:48;10.85;;;7.05;;
45488;SDS011;31236;55.026;61.042;2022-07-30T14:17:56;9.30;;;5.50;;
45488;SDS011;31236;55.026;61.042;2022-07-30T14:20:26;11.35;;;6.22;;
45488;SDS011;31236;55.026;61.042;2022-07-30T14:22:57;10.75;;;5.75;;
45488;SDS011;31236;55.026;61.042;2022-07-30T14:25:31;8.80;;;5.12;;
45488;SDS011;31236;55.026;61.042;2022-07-30T14:28:04;13.62;;;5.90;;
45488;SDS011;31236;55.026;61.042;2022-07-30T14:30:38;10.72;;;5.92;;
45488;SDS011;31236;55.026;61.042;2022-07-30T14:33:11;11.73;;;6.60;;
45488;SDS011;31236;55.026;61.042;2022-07-30T14:35:45;11.93;;;7.75;;
45488;SDS011;31236;55.026;61.042;2022-07-30T14:38:17;18.73;;;8.33;;
45488;SDS011;31236;55.026;61.042;2022-07-30T14:43:20;21.45;;;9.35;;
45488;SDS011;31236;55.026;61.042;2022-07-30T14:45:53;30.43;;;15.20;;
45488;SDS011;31236;55.026;61.042;2022-07-30T14:48:24;75.95;;;33.92;;
45488;SDS011;31236;55.026;61.042;2022-07-30T14:53:27;71.00;;;20.57;;
45488;SDS011;31236;55.026;61.042;2022-07-30T14:55:59;52.27;;;16.93;;
45488;SDS011;31236;55.026;61.042;2022-07-30T14:58:30;42.48;;;17.32;;
45488;SDS011;31236;55.026;61.042;2022-07-30T15:01:03;40.92;;;17.90;;
45488;SDS011;31236;55.026;61.042;2022-07-30T15:06:04;41.95;;;12.98;;
45488;SDS011;31236;55.026;61.042;2022-07-30T15:08:37;34.08;;;12.13;;
45488;SDS011;31236;55.026;61.042;2022-07-30T15:11:09;37.98;;;12.85;;
45488;SDS011;31236;55.026;61.042;2022-07-30T15:13:41;53.68;;;29.82;;
45488;SDS011;31236;55.026;61.042;2022-07-30T15:18:42;45.00;;;20.35;;
45488;SDS011;31236;55.026;61.042;2022-07-30T15:23:50;66.40;;;50.80;;
45488;SDS011;31236;55.026;61.042;2022-07-30T15:26:21;37.30;;;18.32;;
45488;SDS011;31236;55.026;61.042;2022-07-30T15:28:53;27.42;;;15.13;;
45488;SDS011;31236;55.026;61.042;2022-07-30T15:31:27;30.97;;;15.98;;
45488;SDS011;31236;55.026;61.042;2022-07-30T15:33:57;26.80;;;13.13;;
45488;SDS011;31236;55.026;61.042;2022-07-30T15:36:30;33.50;;;9.63;;
45488;SDS011;31236;55.026;61.042;2022-07-30T15:39:02;23.50;;;7.58;;
45488;SDS011;31236;55.026;61.042;2022-07-30T15:41:33;27.00;;;7.83;;
45488;SDS011;31236;55.026;61.042;2022-07-30T15:44:05;22.77;;;6.53;;
45488;SDS011;31236;55.026;61.042;2022-07-30T15:46:39;17.35;;;6.05;;
45488;SDS011;31236;55.026;61.042;2022-07-30T15:49:11;19.48;;;6.28;;
45488;SDS011;31236;55.026;61.042;2022-07-30T15:51:45;19.70;;;6.45;;
45488;SDS011;31236;55.026;61.042;2022-07-30T15:54:15;23.67;;;5.50;;
45488;SDS011;31236;55.026;61.042;2022-07-30T15:56:51;22.37;;;8.25;;
45488;SDS011;31236;55.026;61.042;2022-07-30T15:59:24;20.10;;;6.65;;
45488;SDS011;31236;55.026;61.042;2022-07-30T16:02:06;15.78;;;5.40;;
45488;SDS011;31236;55.026;61.042;2022-07-30T16:04:40;17.17;;;8.03;;
45488;SDS011;31236;55.026;61.042;2022-07-30T16:07:10;23.92;;;8.58;;
45488;SDS011;31236;55.026;61.042;2022-07-30T16:12:11;17.75;;;7.25;;
45488;SDS011;31236;55.026;61.042;2022-07-30T16:14:42;21.35;;;8.50;;
45488;SDS011;31236;55.026;61.042;2022-07-30T16:17:17;21.57;;;8.25;;
45488;SDS011;31236;55.026;61.042;2022-07-30T16:22:27;22.58;;;9.50;;
45488;SDS011;31236;55.026;61.042;2022-07-30T16:25:01;27.98;;;10.70;;
45488;SDS011;31236;55.026;61.042;2022-07-30T16:27:35;22.02;;;10.82;;
45488;SDS011;31236;55.026;61.042;2022-07-30T16:30:09;21.20;;;10.40;;
45488;SDS011;31236;55.026;61.042;2022-07-30T16:32:43;19.85;;;9.23;;
45488;SDS011;31236;55.026;61.042;2022-07-30T16:37:49;101.82;;;62.95;;
45488;SDS011;31236;55.026;61.042;2022-07-30T16:40:23;86.50;;;53.35;;
45488;SDS011;31236;55.026;61.042;2022-07-30T16:42:57;86.20;;;55.65;;
45488;SDS011;31236;55.026;61.042;2022-07-30T16:45:32;85.50;;;52.43;;
45488;SDS011;31236;55.026;61.042;2022-07-30T16:48:04;56.55;;;33.75;;
45488;SDS011;31236;55.026;61.042;2022-07-30T16:50:39;38.65;;;24.75;;
45488;SDS011;31236;55.026;61.042;2022-07-30T16:53:13;18.45;;;12.80;;
45488;SDS011;31236;55.026;61.042;2022-07-30T16:55:46;17.55;;;10.15;;
45488;SDS011;31236;55.026;61.042;2022-07-30T16:58:16;15.95;;;9.78;;
45488;SDS011;31236;55.026;61.042;2022-07-30T17:00:50;31.50;;;18.80;;
45488;SDS011;31236;55.026;61.042;2022-07-30T17:03:24;25.00;;;15.98;;
45488;SDS011;31236;55.026;61.042;2022-07-30T17:05:59;24.47;;;15.63;;
45488;SDS011;31236;55.026;61.042;2022-07-30T17:11:03;18.62;;;12.50;;
45488;SDS011;31236;55.026;61.042;2022-07-30T17:16:10;24.12;;;13.28;;
45488;SDS011;31236;55.026;61.042;2022-07-30T17:18:44;17.02;;;10.98;;
45488;SDS011;31236;55.026;61.042;2022-07-30T17:23:55;17.48;;;11.73;;
45488;SDS011;31236;55.026;61.042;2022-07-30T17:26:28;21.27;;;10.30;;